sensor_id;sensor_type;location;lat;lon;timestamp;temperature;humidity
79356;SHT31;68825;51.978;5.654;2024-03-08T00:00:23;6.2;64.6
79356;SHT31;68825;51.978;5.654;2024-03-08T00:02:54;6.2;64.5
79356;SHT31;68825;51.978;5.654;2024-03-08T00:05:22;6.2;64.1
79356;SHT31;68825;51.978;5.654;2024-03-08T00:07:51;6.2;64.2
79356;SHT31;68825;51.978;5.654;2024-03-08T00:10:21;6.2;64.2
79356;SHT31;68825;51.978;5.654;2024-03-08T00:12:49;6.2;64.2
79356;SHT31;68825;51.978;5.654;2024-03-08T00:15:20;6.1;64.3
79356;SHT31;68825;51.978;5.654;2024-03-08T00:17:51;6.1;64.3
79356;SHT31;68825;51.978;5.654;2024-03-08T00:20:20;6.1;63.9
79356;SHT31;68825;51.978;5.654;2024-03-08T00:22:50;6.1;64.1
79356;SHT31;68825;51.978;5.654;2024-03-08T00:25:20;6.1;63.9
79356;SHT31;68825;51.978;5.654;2024-03-08T00:27:51;6.1;63.9
79356;SHT31;68825;51.978;5.654;2024-03-08T00:30:22;6.1;64.1
79356;SHT31;68825;51.978;5.654;2024-03-08T00:32:52;6.0;63.7
79356;SHT31;68825;51.978;5.654;2024-03-08T00:35:20;6.0;63.7
79356;SHT31;68825;51.978;5.654;2024-03-08T00:37:49;6.0;63.6
79356;SHT31;68825;51.978;5.654;2024-03-08T00:40:18;6.0;63.7
79356;SHT31;68825;51.978;5.654;2024-03-08T00:42:47;5.9;63.5
79356;SHT31;68825;51.978;5.654;2024-03-08T00:45:15;5.9;63.7
79356;SHT31;68825;51.978;5.654;2024-03-08T00:47:44;5.9;63.7
79356;SHT31;68825;51.978;5.654;2024-03-08T00:50:13;5.9;63.5
79356;SHT31;68825;51.978;5.654;2024-03-08T00:52:44;5.8;63.9
79356;SHT31;68825;51.978;5.654;2024-03-08T00:55:13;5.8;64.0
79356;SHT31;68825;51.978;5.654;2024-03-08T00:57:41;5.8;63.8
79356;SHT31;68825;51.978;5.654;2024-03-08T01:00:11;5.7;63.7
79356;SHT31;68825;51.978;5.654;2024-03-08T01:02:40;5.7;64.2
79356;SHT31;68825;51.978;5.654;2024-03-08T01:05:09;5.7;63.9
79356;SHT31;68825;51.978;5.654;2024-03-08T01:07:37;5.6;63.9
79356;SHT31;68825;51.978;5.654;2024-03-08T01:10:07;5.6;63.8
79356;SHT31;68825;51.978;5.654;2024-03-08T01:12:37;5.6;63.9
79356;SHT31;68825;51.978;5.654;2024-03-08T01:15:06;5.5;64.1
79356;SHT31;68825;51.978;5.654;2024-03-08T01:17:36;5.5;64.0
79356;SHT31;68825;51.978;5.654;2024-03-08T01:20:06;5.5;64.3
79356;SHT31;68825;51.978;5.654;2024-03-08T01:22:37;5.5;64.0
79356;SHT31;68825;51.978;5.654;2024-03-08T01:25:06;5.5;64.1
79356;SHT31;68825;51.978;5.654;2024-03-08T01:27:35;5.5;64.1
79356;SHT31;68825;51.978;5.654;2024-03-08T01:30:05;5.5;64.1
79356;SHT31;68825;51.978;5.654;2024-03-08T01:32:36;5.4;63.8
79356;SHT31;68825;51.978;5.654;2024-03-08T01:35:05;5.4;64.0
79356;SHT31;68825;51.978;5.654;2024-03-08T01:37:36;5.4;63.9
79356;SHT31;68825;51.978;5.654;2024-03-08T01:40:05;5.4;63.5
79356;SHT31;68825;51.978;5.654;2024-03-08T01:42:35;5.4;63.5
79356;SHT31;68825;51.978;5.654;2024-03-08T01:45:04;5.4;63.4
79356;SHT31;68825;51.978;5.654;2024-03-08T01:47:34;5.4;63.2
79356;SHT31;68825;51.978;5.654;2024-03-08T01:50:04;5.4;63.3
79356;SHT31;68825;51.978;5.654;2024-03-08T01:52:34;5.4;63.2
79356;SHT31;68825;51.978;5.654;2024-03-08T01:55:05;5.3;63.2
79356;SHT31;68825;51.978;5.654;2024-03-08T01:57:35;5.3;63.1
79356;SHT31;68825;51.978;5.654;2024-03-08T02:00:05;5.3;62.9
79356;SHT31;68825;51.978;5.654;2024-03-08T02:02:37;5.3;62.4
79356;SHT31;68825;51.978;5.654;2024-03-08T02:05:09;5.3;62.3
79356;SHT31;68825;51.978;5.654;2024-03-08T02:07:37;5.3;62.3
79356;SHT31;68825;51.978;5.654;2024-03-08T02:10:08;5.3;62.4
79356;SHT31;68825;51.978;5.654;2024-03-08T02:12:37;5.3;62.0
79356;SHT31;68825;51.978;5.654;2024-03-08T02:15:06;5.3;62.0
79356;SHT31;68825;51.978;5.654;2024-03-08T02:17:35;5.3;62.9
79356;SHT31;68825;51.978;5.654;2024-03-08T02:20:04;5.3;62.2
79356;SHT31;68825;51.978;5.654;2024-03-08T02:22:38;5.3;61.7
79356;SHT31;68825;51.978;5.654;2024-03-08T02:25:08;5.3;62.2
79356;SHT31;68825;51.978;5.654;2024-03-08T02:27:36;5.3;61.6
79356;SHT31;68825;51.978;5.654;2024-03-08T02:30:06;5.3;61.8
79356;SHT31;68825;51.978;5.654;2024-03-08T02:32:36;5.2;61.8
79356;SHT31;68825;51.978;5.654;2024-03-08T02:35:05;5.2;61.3
79356;SHT31;68825;51.978;5.654;2024-03-08T02:37:34;5.2;61.4
79356;SHT31;68825;51.978;5.654;2024-03-08T02:40:03;5.2;61.3
79356;SHT31;68825;51.978;5.654;2024-03-08T02:42:31;5.2;61.6
79356;SHT31;68825;51.978;5.654;2024-03-08T02:45:00;5.2;62.2
79356;SHT31;68825;51.978;5.654;2024-03-08T02:47:29;5.2;61.5
79356;SHT31;68825;51.978;5.654;2024-03-08T02:49:57;5.2;61.6
79356;SHT31;68825;51.978;5.654;2024-03-08T02:52:27;5.2;61.3
79356;SHT31;68825;51.978;5.654;2024-03-08T02:54:57;5.1;61.5
79356;SHT31;68825;51.978;5.654;2024-03-08T02:57:26;5.1;61.5
79356;SHT31;68825;51.978;5.654;2024-03-08T02:59:55;5.1;61.8
79356;SHT31;68825;51.978;5.654;2024-03-08T03:02:26;5.1;61.9
79356;SHT31;68825;51.978;5.654;2024-03-08T03:04:54;5.1;61.7
79356;SHT31;68825;51.978;5.654;2024-03-08T03:07:24;5.1;61.5
79356;SHT31;68825;51.978;5.654;2024-03-08T03:09:54;5.1;61.6
79356;SHT31;68825;51.978;5.654;2024-03-08T03:12:22;5.1;61.1
79356;SHT31;68825;51.978;5.654;2024-03-08T03:14:51;5.1;61.3
79356;SHT31;68825;51.978;5.654;2024-03-08T03:17:20;5.1;61.9
79356;SHT31;68825;51.978;5.654;2024-03-08T03:19:48;5.0;61.3
79356;SHT31;68825;51.978;5.654;2024-03-08T03:22:20;5.0;61.6
79356;SHT31;68825;51.978;5.654;2024-03-08T03:24:48;5.0;61.3
79356;SHT31;68825;51.978;5.654;2024-03-08T03:27:18;5.0;62.0
79356;SHT31;68825;51.978;5.654;2024-03-08T03:29:46;5.0;61.8
79356;SHT31;68825;51.978;5.654;2024-03-08T03:32:15;4.9;61.9
79356;SHT31;68825;51.978;5.654;2024-03-08T03:34:45;4.9;61.6
79356;SHT31;68825;51.978;5.654;2024-03-08T03:37:15;4.9;61.9
79356;SHT31;68825;51.978;5.654;2024-03-08T03:39:44;4.9;62.2
79356;SHT31;68825;51.978;5.654;2024-03-08T03:42:19;4.9;61.5
79356;SHT31;68825;51.978;5.654;2024-03-08T03:44:49;4.8;62.6
79356;SHT31;68825;51.978;5.654;2024-03-08T03:47:19;4.8;62.4
79356;SHT31;68825;51.978;5.654;2024-03-08T03:49:47;4.8;62.8
79356;SHT31;68825;51.978;5.654;2024-03-08T03:52:16;4.8;62.7
79356;SHT31;68825;51.978;5.654;2024-03-08T03:54:44;4.8;62.6
79356;SHT31;68825;51.978;5.654;2024-03-08T03:57:13;4.8;62.5
79356;SHT31;68825;51.978;5.654;2024-03-08T03:59:42;4.8;62.0
79356;SHT31;68825;51.978;5.654;2024-03-08T04:02:11;4.8;62.2
79356;SHT31;68825;51.978;5.654;2024-03-08T04:04:39;4.8;62.0
79356;SHT31;68825;51.978;5.654;2024-03-08T04:07:08;4.8;62.0
79356;SHT31;68825;51.978;5.654;2024-03-08T04:09:39;4.8;62.3
79356;SHT31;68825;51.978;5.654;2024-03-08T04:12:08;4.8;62.2
79356;SHT31;68825;51.978;5.654;2024-03-08T04:14:38;4.7;62.1
79356;SHT31;68825;51.978;5.654;2024-03-08T04:17:07;4.7;62.4
79356;SHT31;68825;51.978;5.654;2024-03-08T04:19:38;4.7;62.5
79356;SHT31;68825;51.978;5.654;2024-03-08T04:22:07;4.7;62.3
79356;SHT31;68825;51.978;5.654;2024-03-08T04:24:36;4.7;63.0
79356;SHT31;68825;51.978;5.654;2024-03-08T04:27:08;4.7;62.5
79356;SHT31;68825;51.978;5.654;2024-03-08T04:29:37;4.7;62.8
79356;SHT31;68825;51.978;5.654;2024-03-08T04:32:06;4.7;62.9
79356;SHT31;68825;51.978;5.654;2024-03-08T04:34:35;4.7;62.5
79356;SHT31;68825;51.978;5.654;2024-03-08T04:37:04;4.7;62.4
79356;SHT31;68825;51.978;5.654;2024-03-08T04:39:33;4.7;62.6
79356;SHT31;68825;51.978;5.654;2024-03-08T04:42:03;4.6;62.4
79356;SHT31;68825;51.978;5.654;2024-03-08T04:44:33;4.6;62.6
79356;SHT31;68825;51.978;5.654;2024-03-08T04:47:02;4.6;62.5
79356;SHT31;68825;51.978;5.654;2024-03-08T04:49:32;4.6;62.8
79356;SHT31;68825;51.978;5.654;2024-03-08T04:52:02;4.6;62.7
79356;SHT31;68825;51.978;5.654;2024-03-08T04:54:31;4.6;62.4
79356;SHT31;68825;51.978;5.654;2024-03-08T04:57:00;4.6;62.3
79356;SHT31;68825;51.978;5.654;2024-03-08T04:59:31;4.6;62.8
79356;SHT31;68825;51.978;5.654;2024-03-08T05:01:59;4.6;62.4
79356;SHT31;68825;51.978;5.654;2024-03-08T05:04:28;4.5;62.8
79356;SHT31;68825;51.978;5.654;2024-03-08T05:06:58;4.5;62.7
79356;SHT31;68825;51.978;5.654;2024-03-08T05:09:28;4.5;62.4
79356;SHT31;68825;51.978;5.654;2024-03-08T05:12:00;4.5;62.4
79356;SHT31;68825;51.978;5.654;2024-03-08T05:14:28;4.5;62.8
79356;SHT31;68825;51.978;5.654;2024-03-08T05:16:57;4.5;63.0
79356;SHT31;68825;51.978;5.654;2024-03-08T05:19:27;4.5;62.5
79356;SHT31;68825;51.978;5.654;2024-03-08T05:21:56;4.5;63.1
79356;SHT31;68825;51.978;5.654;2024-03-08T05:24:25;4.5;62.8
79356;SHT31;68825;51.978;5.654;2024-03-08T05:26:53;4.5;62.7
79356;SHT31;68825;51.978;5.654;2024-03-08T05:29:22;4.5;62.8
79356;SHT31;68825;51.978;5.654;2024-03-08T05:31:52;4.5;62.7
79356;SHT31;68825;51.978;5.654;2024-03-08T05:34:21;4.5;62.6
79356;SHT31;68825;51.978;5.654;2024-03-08T05:36:51;4.5;62.5
79356;SHT31;68825;51.978;5.654;2024-03-08T05:39:21;4.4;62.7
79356;SHT31;68825;51.978;5.654;2024-03-08T05:41:52;4.4;63.1
79356;SHT31;68825;51.978;5.654;2024-03-08T05:44:21;4.4;62.7
79356;SHT31;68825;51.978;5.654;2024-03-08T05:46:51;4.4;62.6
79356;SHT31;68825;51.978;5.654;2024-03-08T05:49:19;4.4;62.6
79356;SHT31;68825;51.978;5.654;2024-03-08T05:51:48;4.4;62.6
79356;SHT31;68825;51.978;5.654;2024-03-08T05:54:17;4.4;63.1
79356;SHT31;68825;51.978;5.654;2024-03-08T05:56:48;4.4;62.9
79356;SHT31;68825;51.978;5.654;2024-03-08T05:59:22;4.4;63.3
79356;SHT31;68825;51.978;5.654;2024-03-08T06:01:53;4.4;62.6
79356;SHT31;68825;51.978;5.654;2024-03-08T06:04:23;4.4;63.0
79356;SHT31;68825;51.978;5.654;2024-03-08T06:06:54;4.4;62.6
79356;SHT31;68825;51.978;5.654;2024-03-08T06:09:25;4.4;62.6
79356;SHT31;68825;51.978;5.654;2024-03-08T06:11:55;4.4;62.7
79356;SHT31;68825;51.978;5.654;2024-03-08T06:14:27;4.4;62.8
79356;SHT31;68825;51.978;5.654;2024-03-08T06:16:57;4.4;62.5
79356;SHT31;68825;51.978;5.654;2024-03-08T06:19:27;4.4;62.7
79356;SHT31;68825;51.978;5.654;2024-03-08T06:21:57;4.4;62.4
79356;SHT31;68825;51.978;5.654;2024-03-08T06:24:28;4.5;62.6
79356;SHT31;68825;51.978;5.654;2024-03-08T06:26:59;4.5;62.1
79356;SHT31;68825;51.978;5.654;2024-03-08T06:29:30;4.5;62.1
79356;SHT31;68825;51.978;5.654;2024-03-08T06:32:00;4.5;62.2
79356;SHT31;68825;51.978;5.654;2024-03-08T06:34:32;4.5;62.1
79356;SHT31;68825;51.978;5.654;2024-03-08T06:37:03;4.5;62.0
79356;SHT31;68825;51.978;5.654;2024-03-08T06:39:32;4.4;62.5
79356;SHT31;68825;51.978;5.654;2024-03-08T06:42:03;4.4;62.4
79356;SHT31;68825;51.978;5.654;2024-03-08T06:44:38;4.5;62.1
79356;SHT31;68825;51.978;5.654;2024-03-08T06:47:13;4.5;62.3
79356;SHT31;68825;51.978;5.654;2024-03-08T06:49:44;4.5;62.8
79356;SHT31;68825;51.978;5.654;2024-03-08T06:52:14;4.5;62.1
79356;SHT31;68825;51.978;5.654;2024-03-08T06:54:46;4.5;62.5
79356;SHT31;68825;51.978;5.654;2024-03-08T06:57:16;4.5;62.3
79356;SHT31;68825;51.978;5.654;2024-03-08T06:59:49;4.5;62.5
79356;SHT31;68825;51.978;5.654;2024-03-08T07:02:19;4.5;62.2
79356;SHT31;68825;51.978;5.654;2024-03-08T07:04:51;4.5;62.3
79356;SHT31;68825;51.978;5.654;2024-03-08T07:07:23;4.5;62.7
79356;SHT31;68825;51.978;5.654;2024-03-08T07:09:55;4.6;62.4
79356;SHT31;68825;51.978;5.654;2024-03-08T07:12:26;4.6;62.2
79356;SHT31;68825;51.978;5.654;2024-03-08T07:14:57;4.6;62.0
79356;SHT31;68825;51.978;5.654;2024-03-08T07:17:28;4.6;62.2
79356;SHT31;68825;51.978;5.654;2024-03-08T07:20:01;4.6;62.1
79356;SHT31;68825;51.978;5.654;2024-03-08T07:22:35;4.6;61.7
79356;SHT31;68825;51.978;5.654;2024-03-08T07:25:08;4.7;61.9
79356;SHT31;68825;51.978;5.654;2024-03-08T07:27:49;4.7;62.0
79356;SHT31;68825;51.978;5.654;2024-03-08T07:30:22;4.7;62.4
79356;SHT31;68825;51.978;5.654;2024-03-08T07:33:09;4.7;61.8
79356;SHT31;68825;51.978;5.654;2024-03-08T07:35:39;4.7;61.5
79356;SHT31;68825;51.978;5.654;2024-03-08T07:38:09;4.8;61.9
79356;SHT31;68825;51.978;5.654;2024-03-08T07:40:39;4.8;61.5
79356;SHT31;68825;51.978;5.654;2024-03-08T07:43:11;4.8;61.6
79356;SHT31;68825;51.978;5.654;2024-03-08T07:45:40;4.8;61.4
79356;SHT31;68825;51.978;5.654;2024-03-08T07:48:09;4.9;61.3
79356;SHT31;68825;51.978;5.654;2024-03-08T07:50:39;4.9;61.5
79356;SHT31;68825;51.978;5.654;2024-03-08T07:53:08;4.9;62.2
79356;SHT31;68825;51.978;5.654;2024-03-08T07:55:37;5.0;61.7
79356;SHT31;68825;51.978;5.654;2024-03-08T07:58:08;5.0;61.8
79356;SHT31;68825;51.978;5.654;2024-03-08T08:00:37;5.1;61.6
79356;SHT31;68825;51.978;5.654;2024-03-08T08:03:06;5.1;61.2
79356;SHT31;68825;51.978;5.654;2024-03-08T08:05:35;5.2;61.4
79356;SHT31;68825;51.978;5.654;2024-03-08T08:08:07;5.2;60.3
79356;SHT31;68825;51.978;5.654;2024-03-08T08:10:36;5.2;60.6
79356;SHT31;68825;51.978;5.654;2024-03-08T08:13:06;5.3;60.5
79356;SHT31;68825;51.978;5.654;2024-03-08T08:15:34;5.3;60.7
79356;SHT31;68825;51.978;5.654;2024-03-08T08:18:03;5.3;60.9
79356;SHT31;68825;51.978;5.654;2024-03-08T08:20:33;5.4;60.0
79356;SHT31;68825;51.978;5.654;2024-03-08T08:23:01;5.4;59.8
79356;SHT31;68825;51.978;5.654;2024-03-08T08:25:32;5.5;60.1
79356;SHT31;68825;51.978;5.654;2024-03-08T08:28:02;5.5;59.8
79356;SHT31;68825;51.978;5.654;2024-03-08T08:30:31;5.5;60.4
79356;SHT31;68825;51.978;5.654;2024-03-08T08:33:01;5.6;60.5
79356;SHT31;68825;51.978;5.654;2024-03-08T08:35:31;5.6;60.0
79356;SHT31;68825;51.978;5.654;2024-03-08T08:38:00;5.7;60.5
79356;SHT31;68825;51.978;5.654;2024-03-08T08:40:30;5.7;59.8
79356;SHT31;68825;51.978;5.654;2024-03-08T08:43:00;5.8;59.5
79356;SHT31;68825;51.978;5.654;2024-03-08T08:45:31;5.8;60.3
79356;SHT31;68825;51.978;5.654;2024-03-08T08:47:59;5.9;60.3
79356;SHT31;68825;51.978;5.654;2024-03-08T08:50:29;5.9;59.6
79356;SHT31;68825;51.978;5.654;2024-03-08T08:52:57;6.0;59.1
79356;SHT31;68825;51.978;5.654;2024-03-08T08:55:26;6.1;59.6
79356;SHT31;68825;51.978;5.654;2024-03-08T08:57:55;6.1;59.1
79356;SHT31;68825;51.978;5.654;2024-03-08T09:00:24;6.2;59.4
79356;SHT31;68825;51.978;5.654;2024-03-08T09:02:55;6.3;58.6
79356;SHT31;68825;51.978;5.654;2024-03-08T09:05:24;6.3;59.4
79356;SHT31;68825;51.978;5.654;2024-03-08T09:07:53;6.4;58.4
79356;SHT31;68825;51.978;5.654;2024-03-08T09:10:22;6.4;58.5
79356;SHT31;68825;51.978;5.654;2024-03-08T09:12:50;6.5;58.5
79356;SHT31;68825;51.978;5.654;2024-03-08T09:15:19;6.5;57.7
79356;SHT31;68825;51.978;5.654;2024-03-08T09:17:50;6.6;58.6
79356;SHT31;68825;51.978;5.654;2024-03-08T09:20:19;6.6;58.2
79356;SHT31;68825;51.978;5.654;2024-03-08T09:22:48;6.7;58.4
79356;SHT31;68825;51.978;5.654;2024-03-08T09:25:17;6.7;58.2
79356;SHT31;68825;51.978;5.654;2024-03-08T09:27:45;6.8;58.3
79356;SHT31;68825;51.978;5.654;2024-03-08T09:30:15;6.8;58.6
79356;SHT31;68825;51.978;5.654;2024-03-08T09:32:46;6.9;58.6
79356;SHT31;68825;51.978;5.654;2024-03-08T09:35:17;7.0;58.5
79356;SHT31;68825;51.978;5.654;2024-03-08T09:37:46;7.0;58.7
79356;SHT31;68825;51.978;5.654;2024-03-08T09:40:18;7.1;57.9
79356;SHT31;68825;51.978;5.654;2024-03-08T09:42:48;7.2;58.6
79356;SHT31;68825;51.978;5.654;2024-03-08T09:45:17;7.2;58.0
79356;SHT31;68825;51.978;5.654;2024-03-08T09:47:48;7.3;57.9
79356;SHT31;68825;51.978;5.654;2024-03-08T09:50:17;7.3;57.8
79356;SHT31;68825;51.978;5.654;2024-03-08T09:52:47;7.4;58.3
79356;SHT31;68825;51.978;5.654;2024-03-08T09:55:16;7.4;57.2
79356;SHT31;68825;51.978;5.654;2024-03-08T09:57:48;7.5;57.0
79356;SHT31;68825;51.978;5.654;2024-03-08T10:00:51;7.5;57.2
79356;SHT31;68825;51.978;5.654;2024-03-08T10:03:20;7.6;56.9
79356;SHT31;68825;51.978;5.654;2024-03-08T10:05:49;7.6;57.5
79356;SHT31;68825;51.978;5.654;2024-03-08T10:08:18;7.7;57.6
79356;SHT31;68825;51.978;5.654;2024-03-08T10:10:50;7.8;57.2
79356;SHT31;68825;51.978;5.654;2024-03-08T10:13:19;7.8;56.1
79356;SHT31;68825;51.978;5.654;2024-03-08T10:15:49;7.9;56.7
79356;SHT31;68825;51.978;5.654;2024-03-08T10:18:18;7.9;56.5
79356;SHT31;68825;51.978;5.654;2024-03-08T10:21:04;8.0;57.2
79356;SHT31;68825;51.978;5.654;2024-03-08T10:23:33;8.1;56.9
79356;SHT31;68825;51.978;5.654;2024-03-08T10:26:12;8.1;55.6
79356;SHT31;68825;51.978;5.654;2024-03-08T10:28:45;8.2;56.5
79356;SHT31;68825;51.978;5.654;2024-03-08T10:31:14;8.3;55.7
79356;SHT31;68825;51.978;5.654;2024-03-08T10:33:45;8.4;55.3
79356;SHT31;68825;51.978;5.654;2024-03-08T10:36:15;8.4;55.8
79356;SHT31;68825;51.978;5.654;2024-03-08T10:38:45;8.5;55.0
79356;SHT31;68825;51.978;5.654;2024-03-08T10:41:16;8.6;54.6
79356;SHT31;68825;51.978;5.654;2024-03-08T10:43:55;8.7;54.7
79356;SHT31;68825;51.978;5.654;2024-03-08T10:46:33;8.8;55.5
79356;SHT31;68825;51.978;5.654;2024-03-08T10:49:10;8.9;55.0
79356;SHT31;68825;51.978;5.654;2024-03-08T10:51:41;8.9;54.8
79356;SHT31;68825;51.978;5.654;2024-03-08T10:54:12;9.0;54.3
79356;SHT31;68825;51.978;5.654;2024-03-08T10:56:42;9.1;53.6
79356;SHT31;68825;51.978;5.654;2024-03-08T10:59:11;9.2;55.1
79356;SHT31;68825;51.978;5.654;2024-03-08T11:01:40;9.3;53.2
79356;SHT31;68825;51.978;5.654;2024-03-08T11:04:09;9.3;52.5
79356;SHT31;68825;51.978;5.654;2024-03-08T11:06:46;9.4;52.9
79356;SHT31;68825;51.978;5.654;2024-03-08T11:09:29;9.4;53.0
79356;SHT31;68825;51.978;5.654;2024-03-08T11:12:23;9.5;52.0
79356;SHT31;68825;51.978;5.654;2024-03-08T11:14:59;9.6;51.7
79356;SHT31;68825;51.978;5.654;2024-03-08T11:17:46;9.6;52.9
79356;SHT31;68825;51.978;5.654;2024-03-08T11:20:17;9.7;53.2
79356;SHT31;68825;51.978;5.654;2024-03-08T11:22:52;9.8;52.1
79356;SHT31;68825;51.978;5.654;2024-03-08T11:25:38;9.9;51.4
79356;SHT31;68825;51.978;5.654;2024-03-08T11:28:13;10.0;51.0
79356;SHT31;68825;51.978;5.654;2024-03-08T11:30:45;10.1;51.7
79356;SHT31;68825;51.978;5.654;2024-03-08T11:33:16;10.1;50.5
79356;SHT31;68825;51.978;5.654;2024-03-08T11:35:45;10.2;51.0
79356;SHT31;68825;51.978;5.654;2024-03-08T11:38:15;10.3;51.8
79356;SHT31;68825;51.978;5.654;2024-03-08T11:40:46;10.4;51.8
79356;SHT31;68825;51.978;5.654;2024-03-08T11:43:17;10.5;51.4
79356;SHT31;68825;51.978;5.654;2024-03-08T11:45:46;10.6;50.3
79356;SHT31;68825;51.978;5.654;2024-03-08T11:48:14;10.7;49.0
79356;SHT31;68825;51.978;5.654;2024-03-08T11:50:43;10.8;49.3
79356;SHT31;68825;51.978;5.654;2024-03-08T11:53:17;10.9;49.3
79356;SHT31;68825;51.978;5.654;2024-03-08T11:55:45;11.0;48.9
79356;SHT31;68825;51.978;5.654;2024-03-08T11:58:15;11.1;47.2
79356;SHT31;68825;51.978;5.654;2024-03-08T12:00:44;11.1;47.4
79356;SHT31;68825;51.978;5.654;2024-03-08T12:03:19;11.1;48.5
79356;SHT31;68825;51.978;5.654;2024-03-08T12:05:58;11.2;48.1
79356;SHT31;68825;51.978;5.654;2024-03-08T12:08:28;11.3;48.0
79356;SHT31;68825;51.978;5.654;2024-03-08T12:10:56;11.3;46.7
79356;SHT31;68825;51.978;5.654;2024-03-08T12:13:26;11.4;46.7
79356;SHT31;68825;51.978;5.654;2024-03-08T12:15:56;11.5;47.4
79356;SHT31;68825;51.978;5.654;2024-03-08T12:18:26;11.5;46.2
79356;SHT31;68825;51.978;5.654;2024-03-08T12:21:06;11.6;45.8
79356;SHT31;68825;51.978;5.654;2024-03-08T12:23:38;11.6;46.1
79356;SHT31;68825;51.978;5.654;2024-03-08T12:26:12;11.7;45.6
79356;SHT31;68825;51.978;5.654;2024-03-08T12:28:44;11.7;45.3
79356;SHT31;68825;51.978;5.654;2024-03-08T12:31:16;11.8;45.4
79356;SHT31;68825;51.978;5.654;2024-03-08T12:33:51;11.8;45.8
79356;SHT31;68825;51.978;5.654;2024-03-08T12:36:20;11.9;45.9
79356;SHT31;68825;51.978;5.654;2024-03-08T12:38:52;11.9;44.0
79356;SHT31;68825;51.978;5.654;2024-03-08T12:41:22;12.0;44.6
79356;SHT31;68825;51.978;5.654;2024-03-08T12:43:51;12.0;44.8
79356;SHT31;68825;51.978;5.654;2024-03-08T12:46:21;12.0;46.0
79356;SHT31;68825;51.978;5.654;2024-03-08T12:48:54;12.1;45.7
79356;SHT31;68825;51.978;5.654;2024-03-08T12:51:23;12.1;45.1
79356;SHT31;68825;51.978;5.654;2024-03-08T12:53:52;12.2;44.2
79356;SHT31;68825;51.978;5.654;2024-03-08T12:56:32;12.2;44.3
79356;SHT31;68825;51.978;5.654;2024-03-08T12:59:01;12.2;43.5
79356;SHT31;68825;51.978;5.654;2024-03-08T13:01:31;12.2;44.8
79356;SHT31;68825;51.978;5.654;2024-03-08T13:04:00;12.2;44.6
79356;SHT31;68825;51.978;5.654;2024-03-08T13:06:30;12.3;44.4
79356;SHT31;68825;51.978;5.654;2024-03-08T13:08:59;12.3;44.7
79356;SHT31;68825;51.978;5.654;2024-03-08T13:11:32;12.3;45.5
79356;SHT31;68825;51.978;5.654;2024-03-08T13:14:02;12.3;44.0
79356;SHT31;68825;51.978;5.654;2024-03-08T13:16:32;12.3;43.8
79356;SHT31;68825;51.978;5.654;2024-03-08T13:19:01;12.3;44.5
79356;SHT31;68825;51.978;5.654;2024-03-08T13:21:31;12.4;44.8
79356;SHT31;68825;51.978;5.654;2024-03-08T13:24:01;12.4;44.1
79356;SHT31;68825;51.978;5.654;2024-03-08T13:26:30;12.4;43.1
79356;SHT31;68825;51.978;5.654;2024-03-08T13:29:00;12.4;43.9
79356;SHT31;68825;51.978;5.654;2024-03-08T13:31:34;12.4;43.5
79356;SHT31;68825;51.978;5.654;2024-03-08T13:34:04;12.4;43.4
79356;SHT31;68825;51.978;5.654;2024-03-08T13:36:33;12.4;43.4
79356;SHT31;68825;51.978;5.654;2024-03-08T13:39:07;12.4;43.5
79356;SHT31;68825;51.978;5.654;2024-03-08T13:41:41;12.4;44.7
79356;SHT31;68825;51.978;5.654;2024-03-08T13:44:11;12.4;44.6
79356;SHT31;68825;51.978;5.654;2024-03-08T13:46:40;12.5;45.2
79356;SHT31;68825;51.978;5.654;2024-03-08T13:49:08;12.6;45.2
79356;SHT31;68825;51.978;5.654;2024-03-08T13:51:37;12.6;44.4
79356;SHT31;68825;51.978;5.654;2024-03-08T13:54:06;12.7;44.6
79356;SHT31;68825;51.978;5.654;2024-03-08T13:56:36;12.7;45.2
79356;SHT31;68825;51.978;5.654;2024-03-08T13:59:05;12.8;44.9
79356;SHT31;68825;51.978;5.654;2024-03-08T14:01:35;12.8;43.5
79356;SHT31;68825;51.978;5.654;2024-03-08T14:04:04;12.8;43.0
79356;SHT31;68825;51.978;5.654;2024-03-08T14:06:35;12.8;43.7
79356;SHT31;68825;51.978;5.654;2024-03-08T14:09:03;12.8;43.6
79356;SHT31;68825;51.978;5.654;2024-03-08T14:11:34;12.8;43.4
79356;SHT31;68825;51.978;5.654;2024-03-08T14:14:06;12.8;43.9
79356;SHT31;68825;51.978;5.654;2024-03-08T14:16:35;12.8;44.2
79356;SHT31;68825;51.978;5.654;2024-03-08T14:19:07;12.8;43.5
79356;SHT31;68825;51.978;5.654;2024-03-08T14:21:36;12.8;43.6
79356;SHT31;68825;51.978;5.654;2024-03-08T14:24:06;12.8;43.2
79356;SHT31;68825;51.978;5.654;2024-03-08T14:26:35;12.8;43.1
79356;SHT31;68825;51.978;5.654;2024-03-08T14:29:05;12.8;44.0
79356;SHT31;68825;51.978;5.654;2024-03-08T14:31:36;12.8;43.7
79356;SHT31;68825;51.978;5.654;2024-03-08T14:34:05;12.9;44.6
79356;SHT31;68825;51.978;5.654;2024-03-08T14:36:34;12.9;43.5
79356;SHT31;68825;51.978;5.654;2024-03-08T14:39:06;12.9;43.3
79356;SHT31;68825;51.978;5.654;2024-03-08T14:41:35;12.9;44.2
79356;SHT31;68825;51.978;5.654;2024-03-08T14:44:04;12.9;43.5
79356;SHT31;68825;51.978;5.654;2024-03-08T14:46:33;12.9;43.4
79356;SHT31;68825;51.978;5.654;2024-03-08T14:49:01;12.9;42.5
79356;SHT31;68825;51.978;5.654;2024-03-08T14:51:32;12.9;43.6
79356;SHT31;68825;51.978;5.654;2024-03-08T14:54:01;12.9;43.4
79356;SHT31;68825;51.978;5.654;2024-03-08T14:56:33;12.9;44.3
79356;SHT31;68825;51.978;5.654;2024-03-08T14:59:02;12.9;44.0
79356;SHT31;68825;51.978;5.654;2024-03-08T15:01:31;12.9;43.6
79356;SHT31;68825;51.978;5.654;2024-03-08T15:04:02;12.9;43.8
79356;SHT31;68825;51.978;5.654;2024-03-08T15:06:35;12.9;43.3
79356;SHT31;68825;51.978;5.654;2024-03-08T15:09:04;12.9;44.4
79356;SHT31;68825;51.978;5.654;2024-03-08T15:11:38;12.9;43.4
79356;SHT31;68825;51.978;5.654;2024-03-08T15:14:09;12.9;43.0
79356;SHT31;68825;51.978;5.654;2024-03-08T15:16:39;12.8;43.3
79356;SHT31;68825;51.978;5.654;2024-03-08T15:19:09;12.8;43.4
79356;SHT31;68825;51.978;5.654;2024-03-08T15:21:39;12.8;43.3
79356;SHT31;68825;51.978;5.654;2024-03-08T15:24:11;12.7;43.6
79356;SHT31;68825;51.978;5.654;2024-03-08T15:26:43;12.7;43.5
79356;SHT31;68825;51.978;5.654;2024-03-08T15:29:11;12.7;44.0
79356;SHT31;68825;51.978;5.654;2024-03-08T15:31:40;12.6;44.1
79356;SHT31;68825;51.978;5.654;2024-03-08T15:34:09;12.6;44.0
79356;SHT31;68825;51.978;5.654;2024-03-08T15:36:39;12.6;44.2
79356;SHT31;68825;51.978;5.654;2024-03-08T15:39:09;12.6;44.6
79356;SHT31;68825;51.978;5.654;2024-03-08T15:41:38;12.6;44.9
79356;SHT31;68825;51.978;5.654;2024-03-08T15:44:07;12.5;43.9
79356;SHT31;68825;51.978;5.654;2024-03-08T15:46:38;12.5;44.2
79356;SHT31;68825;51.978;5.654;2024-03-08T15:49:07;12.5;44.6
79356;SHT31;68825;51.978;5.654;2024-03-08T15:51:40;12.4;45.0
79356;SHT31;68825;51.978;5.654;2024-03-08T15:54:08;12.4;44.1
79356;SHT31;68825;51.978;5.654;2024-03-08T15:56:37;12.4;44.6
79356;SHT31;68825;51.978;5.654;2024-03-08T15:59:06;12.3;44.1
79356;SHT31;68825;51.978;5.654;2024-03-08T16:01:35;12.3;44.1
79356;SHT31;68825;51.978;5.654;2024-03-08T16:04:03;12.2;44.7
79356;SHT31;68825;51.978;5.654;2024-03-08T16:06:33;12.1;44.8
79356;SHT31;68825;51.978;5.654;2024-03-08T16:09:03;12.1;44.5
79356;SHT31;68825;51.978;5.654;2024-03-08T16:11:37;12.1;44.1
79356;SHT31;68825;51.978;5.654;2024-03-08T16:14:06;12.0;44.8
79356;SHT31;68825;51.978;5.654;2024-03-08T16:16:37;12.0;44.8
79356;SHT31;68825;51.978;5.654;2024-03-08T16:19:06;11.9;45.8
79356;SHT31;68825;51.978;5.654;2024-03-08T16:21:35;11.9;45.3
79356;SHT31;68825;51.978;5.654;2024-03-08T16:24:04;11.9;44.8
79356;SHT31;68825;51.978;5.654;2024-03-08T16:26:35;11.8;44.7
79356;SHT31;68825;51.978;5.654;2024-03-08T16:29:03;11.8;45.0
79356;SHT31;68825;51.978;5.654;2024-03-08T16:31:32;11.8;45.1